Station Historical Data
Daily Summary for May 13, 2017 Units:  English    Metric   Both
« Previous Day
Next Day »
Daily Weekly Monthly Yearly Custom
  High: Low: Average:
Temperature: 76.3 °F 61.4 °F 66.7 °F
Dew Point: 64.6 °F 53.1 °F 60.3 °F
Humidity: 94% 63% 81%
Wind Speed: 2.0mph 0.0mph 0.1mph
Wind Gust: 5.0mph - -
Wind- - South
Pressure: 29.87 in 29.75 in -
Precipitation: 0.00 in    
Historical Graphs
 
 
Tabular Data for May 13, 2017
Time Temperature Dew Point Pressure Wind Wind Speed Wind Gust Humidity Rainfall Rate (Hourly) solar Conditions
00:00 63.8 °F 61.7 °F 29.78 in Calm     93% 0.00 in WeatherDisplay:10.37 W/m2 RA
00:15 63.6 °F 61.5 °F 29.78 in Calm     93% 0.00 in WeatherDisplay:10.37 W/m2 SCT
00:30 63.3 °F 61.2 °F 29.77 in Calm     93% 0.00 in WeatherDisplay:10.37 W/m2 SCT
00:45 63.0 °F 60.9 °F 29.77 in Calm     93% 0.00 in WeatherDisplay:10.37 W/m2 SCT
01:00 62.7 °F 60.6 °F 29.77 in Calm     93% 0.00 in WeatherDisplay:10.37 W/m2 SCT
01:15 62.5 °F 60.4 °F 29.77 in Calm     93% 0.00 in WeatherDisplay:10.37 W/m2 SCT
01:30 62.2 °F 60.2 °F 29.77 in Calm     93% 0.00 in WeatherDisplay:10.37 W/m2 SCT
01:45 62.1 °F 60.0 °F 29.77 in Calm     93% 0.00 in WeatherDisplay:10.37 W/m2 SCT
02:00 61.4 °F 59.7 °F 29.77 in Calm     94% 0.00 in WeatherDisplay:10.37 W/m2 SCT
02:15 61.4 °F 59.7 °F 29.77 in Calm     94% 0.00 in WeatherDisplay:10.37 W/m2 SCT
02:30 61.4 °F 59.7 °F 29.77 in Calm     94% 0.00 in WeatherDisplay:10.37 W/m2 SCT
02:45 61.4 °F 59.7 °F 29.78 in Calm     94% 0.00 in WeatherDisplay:10.37 W/m2 SCT
03:00 61.4 °F 59.7 °F 29.77 in Calm     94% 0.00 in WeatherDisplay:10.37 W/m2 SCT
03:15 61.4 °F 59.7 °F 29.77 in Calm     94% 0.00 in WeatherDisplay:10.37 W/m2 SCT
03:30 61.4 °F 59.7 °F 29.77 in Calm     94% 0.00 in WeatherDisplay:10.37 W/m2 SCT
03:45 61.4 °F 59.7 °F 29.77 in Calm     94% 0.00 in WeatherDisplay:10.37 W/m2 SCT
04:00 61.4 °F 59.7 °F 29.77 in Calm     94% 0.00 in WeatherDisplay:10.37 W/m2 SCT
04:15 61.4 °F 59.7 °F 29.76 in Calm     94% 0.00 in WeatherDisplay:10.37 W/m2 SCT
04:30 61.4 °F 59.7 °F 29.76 in Calm     94% 0.00 in WeatherDisplay:10.37 W/m2 SCT
04:45 61.4 °F 59.7 °F 29.77 in Calm     94% 0.00 in WeatherDisplay:10.37 W/m2 SCT
05:00 61.4 °F 59.7 °F 29.76 in Calm     94% 0.00 in WeatherDisplay:10.37 W/m2 SCT
05:15 61.4 °F 59.7 °F 29.76 in Calm     94% 0.00 in WeatherDisplay:10.37 W/m2 SCT
05:30 61.4 °F 59.7 °F 29.75 in Calm     94% 0.00 in WeatherDisplay:10.37 W/m2 SCT
05:45 61.4 °F 59.7 °F 29.76 in Calm     94% 0.00 in WeatherDisplay:10.37 W/m2 SCT
06:00 61.4 °F 59.7 °F 29.76 in Calm     94% 0.00 in WeatherDisplay:10.37 W/m2 SCT
06:15 61.4 °F 59.7 °F 29.76 in Calm     94% 0.00 in WeatherDisplay:10.37 W/m2 SCT
06:30 61.4 °F 59.7 °F 29.76 in Calm     94% 0.00 in WeatherDisplay:10.37 W/m2 SCT
06:45 61.4 °F 59.7 °F 29.77 in Calm     94% 0.00 in WeatherDisplay:10.37 W/m2 SCT
07:00 61.4 °F 59.7 °F 29.77 in Calm     94% 0.00 in WeatherDisplay:10.37 W/m2 SCT
07:15 61.4 °F 59.7 °F 29.77 in Calm     94% 0.00 in WeatherDisplay:10.37 W/m2 SCT
07:30 61.4 °F 59.7 °F 29.77 in Calm     94% 0.00 in WeatherDisplay:10.37 W/m2 SCT
07:45 61.4 °F 59.7 °F 29.78 in Calm     94% 0.00 in WeatherDisplay:10.37 W/m2 SCT
08:00 61.4 °F 59.7 °F 29.78 in Calm     94% 0.00 in WeatherDisplay:10.37 W/m2 SCT
08:30 61.4 °F 59.7 °F 29.78 in Calm     94% 0.00 in WeatherDisplay:10.37 W/m2 SCT
08:45 62.6 °F 60.5 °F 29.78 in Calm     93% 0.00 in WeatherDisplay:10.37 W/m2 SCT
09:00 62.9 °F 60.8 °F 29.78 in Calm     93% 0.00 in WeatherDisplay:10.37 W/m2 SCT
09:15 63.1 °F 61.0 °F 29.78 in Calm     93% 0.00 in WeatherDisplay:10.37 W/m2 SCT
09:30 63.5 °F 61.4 °F 29.78 in Calm     93% 0.00 in WeatherDisplay:10.37 W/m2 SCT
09:45 63.8 °F 61.7 °F 29.78 in Calm     93% 0.00 in WeatherDisplay:10.37 W/m2 SCT
10:00 64.8 °F 62.4 °F 29.78 in Calm     92% 0.00 in WeatherDisplay:10.37 W/m2 SCT
10:15 65.1 °F 61.8 °F 29.78 in Calm   1.0 mph 89% 0.00 in WeatherDisplay:10.37 W/m2 SCT
10:30 65.8 °F 62.2 °F 29.78 in Calm   1.0 mph 88% 0.00 in WeatherDisplay:10.37 W/m2 SCT
10:45 66.9 °F 62.2 °F 29.78 in Calm   1.0 mph 85% 0.00 in WeatherDisplay:10.37 W/m2 SCT
11:00 68.1 °F 62.4 °F 29.79 in Calm   1.0 mph 82% 0.00 in WeatherDisplay:10.37 W/m2 SCT
11:15 68.5 °F 62.1 °F 29.79 in Calm   2.0 mph 80% 0.00 in WeatherDisplay:10.37 W/m2 SCT
11:30 69.3 °F 62.9 °F 29.80 in Calm     80% 0.00 in WeatherDisplay:10.37 W/m2 SCT
11:45 70.2 °F 62.6 °F 29.80 in Calm   2.0 mph 77% 0.00 in WeatherDisplay:10.37 W/m2 SCT
12:00 69.9 °F 62.7 °F 29.80 in Calm     78% 0.00 in WeatherDisplay:10.37 W/m2 SCT
12:15 70.4 °F 63.6 °F 29.80 in Calm   2.0 mph 79% 0.00 in WeatherDisplay:10.37 W/m2 SCT
12:30 71.1 °F 62.0 °F 29.79 in Calm   1.0 mph 73% 0.00 in WeatherDisplay:10.37 W/m2 SCT
12:45 71.9 °F 63.2 °F 29.79 in Calm   2.0 mph 74% 0.00 in WeatherDisplay:10.37 W/m2 SCT
13:00 74.7 °F 64.6 °F 29.79 in Calm   2.0 mph 71% 0.00 in WeatherDisplay:10.37 W/m2 SCT
13:15 74.9 °F 62.4 °F 29.78 in East 1.0 mph 2.0 mph 65% 0.00 in WeatherDisplay:10.37 W/m2 SCT
13:30 76.3 °F 63.2 °F 29.78 in Calm   1.0 mph 64% 0.00 in WeatherDisplay:10.37 W/m2 SCT
13:45 75.3 °F 61.8 °F 29.77 in Calm   1.0 mph 63% 0.00 in WeatherDisplay:10.37 W/m2 SCT
14:00 75.0 °F 62.0 °F 29.77 in Calm     64% 0.00 in WeatherDisplay:10.37 W/m2 SCT
14:15 74.1 °F 62.4 °F 29.78 in Calm   2.0 mph 67% 0.00 in WeatherDisplay:10.37 W/m2 SCT
14:30 73.9 °F 63.9 °F 29.77 in Calm   3.0 mph 71% 0.00 in WeatherDisplay:10.37 W/m2 SCT
14:45 73.8 °F 64.6 °F 29.77 in Calm   5.0 mph 73% 0.00 in WeatherDisplay:10.37 W/m2 SCT
15:00 74.4 °F 63.6 °F 29.78 in SW 1.0 mph 5.0 mph 69% 0.00 in WeatherDisplay:10.37 W/m2 SCT
15:15 74.7 °F 62.6 °F 29.78 in NE 1.0 mph 5.0 mph 66% 0.00 in WeatherDisplay:10.37 W/m2 SCT
15:30 73.2 °F 64.4 °F 29.78 in Calm   3.0 mph 74% 0.00 in WeatherDisplay:10.37 W/m2 SCT
15:45 72.2 °F 63.9 °F 29.77 in SW 1.0 mph 3.0 mph 75% 0.00 in WeatherDisplay:10.37 W/m2 SCT
16:00 73.0 °F 63.5 °F 29.76 in West 2.0 mph 3.0 mph 72% 0.00 in WeatherDisplay:10.37 W/m2 SCT
16:15 73.3 °F 63.3 °F 29.76 in South 1.0 mph 3.0 mph 71% 0.00 in WeatherDisplay:10.37 W/m2 SCT
16:30 72.9 °F 63.3 °F 29.77 in Calm   2.0 mph 72% 0.00 in WeatherDisplay:10.37 W/m2 SCT
16:45 73.4 °F 63.4 °F 29.77 in Calm   1.0 mph 71% 0.00 in WeatherDisplay:10.37 W/m2 SCT
17:00 74.0 °F 64.0 °F 29.76 in Calm   1.0 mph 71% 0.00 in WeatherDisplay:10.37 W/m2 SCT
17:15 75.2 °F 63.1 °F 29.76 in Calm   5.0 mph 66% 0.00 in WeatherDisplay:10.37 W/m2 SCT
17:30 75.2 °F 63.0 °F 29.76 in Calm   2.0 mph 66% 0.00 in WeatherDisplay:10.37 W/m2 SCT
17:45 74.0 °F 62.8 °F 29.76 in Calm   3.0 mph 68% 0.00 in WeatherDisplay:10.37 W/m2 SCT
18:00 73.4 °F 61.4 °F 29.76 in Calm   5.0 mph 66% 0.00 in WeatherDisplay:10.37 W/m2 SCT
18:15 73.4 °F 60.5 °F 29.77 in Calm   3.0 mph 64% 0.00 in WeatherDisplay:10.37 W/m2 SCT
18:45 72.4 °F 59.1 °F 29.78 in Calm   5.0 mph 63% 0.00 in WeatherDisplay:10.37 W/m2 SCT
19:00 71.8 °F 59.8 °F 29.78 in Calm   2.0 mph 66% 0.00 in WeatherDisplay:10.37 W/m2 SCT
19:15 71.4 °F 58.1 °F 29.78 in WNW 1.0 mph 2.0 mph 63% 0.00 in WeatherDisplay:10.37 W/m2 SCT
19:30 71.0 °F 58.6 °F 29.79 in Calm   2.0 mph 65% 0.00 in WeatherDisplay:10.37 W/m2 SCT
19:45 70.4 °F 57.6 °F 29.80 in Calm   2.0 mph 64% 0.00 in WeatherDisplay:10.37 W/m2 SCT
20:00 70.2 °F 57.4 °F 29.80 in Calm   2.0 mph 64% 0.00 in WeatherDisplay:10.37 W/m2 SCT
20:15 69.5 °F 57.6 °F 29.81 in Calm   2.0 mph 66% 0.00 in WeatherDisplay:10.37 W/m2 SCT
20:30 68.6 °F 57.2 °F 29.82 in Calm   1.0 mph 67% 0.00 in WeatherDisplay:10.37 W/m2 SCT
20:45 67.7 °F 57.2 °F 29.83 in Calm     69% 0.00 in WeatherDisplay:10.37 W/m2 SCT
21:00 66.7 °F 56.6 °F 29.83 in Calm     70% 0.00 in WeatherDisplay:10.37 W/m2 SCT
21:15 66.0 °F 57.5 °F 29.83 in Calm     74% 0.00 in WeatherDisplay:10.37 W/m2 SCT
21:30 65.4 °F 56.5 °F 29.84 in Calm     73% 0.00 in WeatherDisplay:10.37 W/m2 SCT
21:45 64.8 °F 56.3 °F 29.84 in Calm     74% 0.00 in WeatherDisplay:10.37 W/m2 SCT
22:00 64.4 °F 56.3 °F 29.84 in Calm     75% 0.00 in WeatherDisplay:10.37 W/m2 SCT
22:15 63.9 °F 55.5 °F 29.85 in Calm     74% 0.00 in WeatherDisplay:10.37 W/m2 SCT
22:30 63.6 °F 55.5 °F 29.85 in Calm     75% 0.00 in WeatherDisplay:10.37 W/m2 SCT
22:45 63.3 °F 55.2 °F 29.85 in Calm     75% 0.00 in WeatherDisplay:10.37 W/m2 SCT
23:00 63.1 °F 54.7 °F 29.86 in Calm     74% 0.00 in WeatherDisplay:10.37 W/m2 SCT
23:15 63.1 °F 53.2 °F 29.86 in Calm   1.0 mph 70% 0.00 in WeatherDisplay:10.37 W/m2 SCT
23:30 62.7 °F 53.2 °F 29.86 in Calm   1.0 mph 71% 0.00 in WeatherDisplay:10.37 W/m2 SCT
23:45 62.3 °F 53.1 °F 29.87 in Calm   1.0 mph 72% 0.00 in WeatherDisplay:10.37 W/m2 SCT
Piedmont Bend
Compliments of Weather Underground - 4 mb